Charlotte (CLT/KCLT)

Map

Destinations

Information

Location
Charlotte, NC
Local Time
21:48 / 9:48 pm
GMT Time
01:48 / 1:48 am
Gates
A7
No FAA reported delays
METAR KCLT 270052Z 18006KT 10SM FEW080 BKN180 BKN250 26/11 A3005 RMK AO2 SLP167 T02560111
TAF KCLT 262322Z 2700/2724 23003KT P6SM FEW070 BKN200 FM270700 36006KT P6SM SCT060 BKN120 FM272000 01005KT P6SM SCT070